TimeCST,TemperatureF,Dew PointF,Humidity,Sea Level PressureIn,VisibilityMPH,Wind Direction,Wind SpeedMPH,Gust SpeedMPH,PrecipitationIn,Events,Conditions,WindDirDegrees,DateUTC
12:15 AM,44.6,28.4,53,29.89,10.0,SSW,12.7,-,N/A,,Clear,210,2012-12-01 06:15:00
12:35 AM,46.4,26.6,46,29.89,10.0,SW,11.5,-,N/A,,Clear,220,2012-12-01 06:35:00
12:55 AM,48.2,26.6,43,29.89,10.0,SSW,10.4,-,N/A,,Clear,210,2012-12-01 06:55:00
1:15 AM,46.4,23.0,40,29.87,10.0,SW,12.7,-,N/A,,Clear,220,2012-12-01 07:15:00
1:35 AM,50.0,23.0,35,29.87,10.0,SW,11.5,-,N/A,,Clear,220,2012-12-01 07:35:00
2:15 AM,50.0,21.2,32,29.86,10.0,WSW,9.2,-,N/A,,Clear,240,2012-12-01 08:15:00
2:55 AM,53.6,21.2,28,29.85,10.0,WSW,15.0,-,N/A,,Clear,250,2012-12-01 08:55:00
3:15 AM,55.4,21.2,26,29.85,10.0,West,16.1,-,N/A,,Clear,260,2012-12-01 09:15:00
3:35 AM,55.4,21.2,26,29.84,10.0,WSW,17.3,-,N/A,,Clear,250,2012-12-01 09:35:00
4:15 AM,53.6,21.2,28,29.84,10.0,West,15.0,-,N/A,,Clear,270,2012-12-01 10:15:00
4:35 AM,53.6,21.2,28,29.84,10.0,WSW,13.8,-,N/A,,Clear,250,2012-12-01 10:35:00
5:15 AM,53.6,21.2,28,29.84,10.0,WNW,15.0,19.6,N/A,,Clear,290,2012-12-01 11:15:00
5:35 AM,55.4,21.2,26,29.84,10.0,West,16.1,-,N/A,,Clear,270,2012-12-01 11:35:00
6:35 AM,53.6,21.2,28,29.85,10.0,WNW,13.8,-,N/A,,Clear,300,2012-12-01 12:35:00
6:55 AM,51.8,21.2,30,29.85,10.0,West,12.7,-,N/A,,Clear,270,2012-12-01 12:55:00
7:15 AM,51.8,21.2,30,29.86,10.0,West,12.7,-,N/A,,Clear,260,2012-12-01 13:15:00
7:35 AM,53.6,21.2,28,29.86,10.0,WSW,11.5,17.3,N/A,,Clear,250,2012-12-01 13:35:00
7:55 AM,53.6,21.2,28,29.87,10.0,West,12.7,-,N/A,,Clear,260,2012-12-01 13:55:00
8:15 AM,53.6,21.2,28,29.87,10.0,West,12.7,-,N/A,,Clear,270,2012-12-01 14:15:00
8:35 AM,53.6,21.2,28,29.89,10.0,West,13.8,-,N/A,,Clear,280,2012-12-01 14:35:00
9:15 AM,59.0,21.2,23,29.89,10.0,West,15.0,-,N/A,,Clear,270,2012-12-01 15:15:00
9:35 AM,59.0,21.2,23,29.90,10.0,WNW,11.5,19.6,N/A,,Clear,290,2012-12-01 15:35:00
10:15 AM,62.6,23.0,22,29.90,10.0,West,15.0,-,N/A,,Clear,280,2012-12-01 16:15:00
10:35 AM,64.4,23.0,21,29.90,10.0,West,19.6,23.0,N/A,,Clear,280,2012-12-01 16:35:00
10:55 AM,68.0,21.2,17,29.91,10.0,WNW,23.0,-,N/A,,Clear,290,2012-12-01 16:55:00
11:15 AM,68.0,21.2,17,29.92,10.0,West,21.9,25.3,N/A,,Clear,280,2012-12-01 17:15:00
11:35 AM,69.8,21.2,16,29.92,10.0,WNW,17.3,26.5,N/A,,Clear,290,2012-12-01 17:35:00
12:15 PM,68.0,19.4,16,29.91,10.0,WNW,23.0,28.8,N/A,,Clear,290,2012-12-01 18:15:00
12:35 PM,69.8,19.4,15,29.91,10.0,WNW,21.9,25.3,N/A,,Clear,290,2012-12-01 18:35:00
12:55 PM,71.6,19.4,14,29.90,10.0,WNW,18.4,25.3,N/A,,Clear,290,2012-12-01 18:55:00
1:15 PM,71.6,19.4,14,29.90,10.0,WNW,18.4,23.0,N/A,,Clear,290,2012-12-01 19:15:00
1:35 PM,71.6,19.4,14,29.89,10.0,WNW,17.3,24.2,N/A,,Clear,290,2012-12-01 19:35:00
1:55 PM,73.4,19.4,13,29.89,10.0,West,18.4,24.2,N/A,,Clear,280,2012-12-01 19:55:00
2:15 PM,71.6,19.4,14,29.89,10.0,WNW,15.0,-,N/A,,Clear,290,2012-12-01 20:15:00
2:35 PM,73.4,19.4,13,29.89,10.0,West,16.1,-,N/A,,Clear,280,2012-12-01 20:35:00
2:55 PM,71.6,21.2,15,29.89,10.0,WNW,16.1,-,N/A,,Clear,300,2012-12-01 20:55:00
3:15 PM,71.6,21.2,15,29.89,10.0,WNW,15.0,-,N/A,,Clear,300,2012-12-01 21:15:00
3:35 PM,71.6,21.2,15,29.90,10.0,NW,13.8,-,N/A,,Clear,310,2012-12-01 21:35:00
3:55 PM,71.6,21.2,15,29.90,10.0,NW,10.4,-,N/A,,Clear,310,2012-12-01 21:55:00
4:15 PM,71.6,21.2,15,29.91,10.0,NW,11.5,-,N/A,,Clear,310,2012-12-01 22:15:00
4:35 PM,69.8,23.0,17,29.91,10.0,NNW,13.8,-,N/A,,Clear,340,2012-12-01 22:35:00
4:55 PM,68.0,21.2,17,29.92,10.0,North,10.4,-,N/A,,Clear,360,2012-12-01 22:55:00
5:15 PM,62.6,21.2,20,29.93,10.0,North,8.1,-,N/A,,Clear,360,2012-12-01 23:15:00
5:55 PM,55.4,23.0,29,29.95,10.0,North,9.2,-,N/A,,Clear,360,2012-12-01 23:55:00
6:15 PM,53.6,23.0,30,29.95,10.0,North,9.2,-,N/A,,Clear,360,2012-12-02 00:15:00
6:35 PM,51.8,23.0,33,29.96,10.0,North,10.4,-,N/A,,Clear,360,2012-12-02 00:35:00
6:55 PM,50.0,23.0,35,29.96,10.0,North,9.2,-,N/A,,Clear,360,2012-12-02 00:55:00
7:15 PM,50.0,23.0,35,29.98,10.0,North,9.2,-,N/A,,Clear,350,2012-12-02 01:15:00
7:35 PM,50.0,23.0,35,29.98,10.0,NNW,5.8,-,N/A,,Clear,340,2012-12-02 01:35:00
7:55 PM,50.0,23.0,35,30.00,10.0,NNW,5.8,-,N/A,,Clear,330,2012-12-02 01:55:00
8:15 PM,48.2,24.8,40,30.00,10.0,NNW,6.9,-,N/A,,Clear,340,2012-12-02 02:15:00
8:35 PM,46.4,26.6,46,30.00,10.0,NNW,6.9,-,N/A,,Clear,330,2012-12-02 02:35:00
8:55 PM,46.4,26.6,46,30.01,10.0,NNW,6.9,-,N/A,,Clear,330,2012-12-02 02:55:00
9:15 PM,46.4,28.4,50,30.02,10.0,NW,5.8,-,N/A,,Clear,320,2012-12-02 03:15:00
9:35 PM,42.8,26.6,53,30.02,10.0,NNW,9.2,-,N/A,,Clear,340,2012-12-02 03:35:00
9:55 PM,44.6,28.4,53,30.02,10.0,North,9.2,-,N/A,,Clear,350,2012-12-02 03:55:00
10:15 PM,44.6,28.4,53,30.02,10.0,North,6.9,-,N/A,,Clear,350,2012-12-02 04:15:00
10:35 PM,44.6,28.4,53,30.02,10.0,NNE,6.9,-,N/A,,Clear,20,2012-12-02 04:35:00
10:55 PM,44.6,28.4,53,30.02,10.0,North,5.8,-,N/A,,Clear,10,2012-12-02 04:55:00
11:15 PM,44.6,28.4,53,30.02,10.0,North,4.6,-,N/A,,Clear,10,2012-12-02 05:15:00
11:35 PM,42.8,28.4,57,30.03,10.0,WNW,5.8,-,N/A,,Clear,290,2012-12-02 05:35:00
11:55 PM,39.2,26.6,61,30.03,10.0,WNW,5.8,-,N/A,,Clear,290,2012-12-02 05:55:00